Time;durP1;ratioP1;P1;durP2;ratioP2;P2;SDS_P1;SDS_P2;PMS_P1;PMS_P2;Temp;Humidity;BMP_temperature;BMP_pressure;BME280_temperature;BME280_humidity;BME280_pressure;Samples;Min_cycle;Max_cycle;Signal;HPM_P1;HPM_P2
2022/12/15 07:36:07;;;;;;;0.80;0.80;;;-2.90;99.90;-2.80;100550.00;;;;5060126;28;20622;-64
2022/12/15 07:39:07;;;;;;;1.83;1.73;;;-2.60;99.90;-2.70;100551.00;;;;5043195;28;20683;-65
2022/12/15 07:42:13;;;;;;;1.77;1.67;;;-2.40;99.90;-3.60;100543.00;;;;5037732;28;20668;-63
2022/12/15 07:45:15;;;;;;;1.70;1.40;;;-2.70;99.90;-4.20;100442.00;;;;5043750;28;20215;-63
2022/12/15 07:48:10;;;;;;;0.57;0.57;;;-3.10;99.90;-4.10;100553.00;;;;5058728;28;20208;-63
2022/12/15 07:51:04;;;;;;;2.60;2.50;;;-3.30;99.90;-4.00;100540.00;;;;5056445;28;20208;-64
2022/12/15 07:54:01;;;;;;;1.00;1.00;;;-3.20;99.90;-3.00;100567.00;;;;5074322;28;20217;-64
2022/12/15 07:56:49;;;;;;;0.70;0.70;;;-2.80;99.90;-2.90;100572.00;;;;5082033;28;20213;-64
2022/12/15 07:59:42;;;;;;;3.87;3.67;;;-2.60;99.90;-2.70;100574.00;;;;5065705;28;20648;-64
2022/12/15 08:02:52;;;;;;;0.80;0.80;;;-2.30;99.90;-3.30;100586.00;;;;5057801;28;20201;-63
2022/12/15 08:05:49;;;;;;;0.77;0.77;;;-2.40;99.90;-3.30;100586.00;;;;5068005;28;20671;-63
2022/12/15 08:08:59;;;;;;;0.70;0.70;;;-2.70;99.90;-3.10;100473.00;;;;5094933;28;20648;-63
2022/12/15 08:15:45;;;;;;;3.07;2.87;;;-2.70;99.90;-2.60;100551.00;;;;4954462;28;20303;-64
2022/12/15 08:18:40;;;;;;;0.70;0.70;;;-2.30;99.90;-2.50;100595.00;;;;4979409;28;20218;-64
2022/12/15 08:21:37;;;;;;;0.73;0.73;;;-2.20;99.90;-2.90;100578.00;;;;5054259;28;20237;-64
2022/12/15 08:24:26;;;;;;;0.80;0.80;;;-2.30;99.90;-2.40;100604.00;;;;5069093;28;20335;-64
2022/12/15 08:27:19;;;;;;;1.63;1.63;;;-2.20;99.90;-2.40;100576.00;;;;5064378;28;20220;-63
2022/12/15 08:30:23;;;;;;;0.80;0.80;;;-2.10;99.90;-2.30;100610.00;;;;5086676;28;20695;-63
2022/12/15 08:33:24;;;;;;;0.80;0.80;;;-2.10;99.90;-2.70;100601.00;;;;5076889;28;20222;-63
2022/12/15 08:36:12;;;;;;;0.80;0.80;;;-2.20;99.90;-2.40;100629.00;;;;5083971;28;20262;-63
2022/12/15 08:38:46;;;;;;;0.70;0.70;;;-2.20;99.90;-2.30;100614.00;;;;5049445;28;20209;-63
2022/12/15 08:41:32;;;;;;;1.20;1.20;;;-2.10;99.90;-2.20;100620.00;;;;5058754;28;20664;-63
2022/12/15 08:44:00;;;;;;;0.90;0.90;;;-2.00;99.90;-2.80;100638.00;;;;5075366;28;20629;-63
2022/12/15 08:46:35;;;;;;;1.17;1.17;;;-2.10;99.90;-3.10;100613.00;;;;5059435;28;20197;-64
2022/12/15 08:49:24;;;;;;;2.43;1.77;;;-2.20;99.90;-3.20;100574.00;;;;5076462;28;20210;-63
2022/12/15 08:52:13;;;;;;;9.53;9.03;;;-2.30;99.90;-2.90;100636.00;;;;5042887;28;20217;-63
2022/12/15 08:54:39;;;;;;;1.23;1.23;;;-2.20;99.90;-2.60;100636.00;;;;5058177;28;20227;-63
2022/12/15 08:57:05;;;;;;;0.67;0.67;;;-2.10;99.90;-2.40;100631.00;;;;5075499;28;20962;-64
2022/12/15 08:59:30;;;;;;;1.00;1.00;;;-2.00;99.90;-2.20;100602.00;;;;5083213;28;20202;-63
2022/12/15 09:01:57;;;;;;;2.33;2.23;;;-1.80;99.90;-2.80;100650.00;;;;5089520;28;20255;-64
2022/12/15 09:04:23;;;;;;;1.23;1.20;;;-1.90;99.90;-2.80;100567.00;;;;5067347;28;20557;-64
2022/12/15 09:06:49;;;;;;;2.90;1.73;;;-1.90;99.90;-2.40;100644.00;;;;5069594;28;20209;-63
2022/12/15 09:09:15;;;;;;;2.23;2.10;;;-1.90;99.90;-2.00;100656.00;;;;5083877;28;20197;-63
2022/12/15 09:11:41;;;;;;;0.60;0.60;;;-1.60;99.90;-2.30;100653.00;;;;5088267;28;20229;-63
2022/12/15 09:14:24;;;;;;;0.87;0.87;;;-1.70;99.90;-2.00;100651.00;;;;5089277;28;20288;-65
2022/12/15 09:17:22;;;;;;;1.37;1.37;;;-1.70;99.90;-2.10;100630.00;;;;5072876;28;20577;-65
2022/12/15 09:20:14;;;;;;;2.73;2.63;;;-1.60;99.90;-1.70;100654.00;;;;5075082;28;20227;-65
2022/12/15 09:22:43;;;;;;;1.10;1.03;;;-1.40;99.90;-1.90;100651.00;;;;5072048;28;20197;-65
2022/12/15 09:25:09;;;;;;;4.70;4.30;;;-1.40;99.90;-1.90;100663.00;;;;5075535;28;20238;-65
2022/12/15 09:27:56;;;;;;;0.50;0.50;;;-1.40;99.90;-1.70;100665.00;;;;5041811;28;20652;-65
2022/12/15 09:30:21;;;;;;;0.60;0.60;;;-1.30;99.90;-1.20;100656.00;;;;5082074;28;20275;-65
2022/12/15 09:32:47;;;;;;;0.97;0.97;;;-1.00;99.90;-0.90;100539.00;;;;5083915;28;20320;-65
2022/12/15 09:35:36;;;;;;;5.27;4.93;;;-0.80;99.90;-1.80;100681.00;;;;5079720;28;20199;-65
2022/12/15 09:38:26;;;;;;;3.47;3.17;;;-0.90;99.90;-1.90;100610.00;;;;5047526;28;20286;-65
2022/12/15 09:41:13;;;;;;;1.27;1.27;;;-1.00;99.90;-2.20;100674.00;;;;5068584;28;20254;-65
2022/12/15 09:44:19;;;;;;;1.43;1.43;;;-1.30;99.90;-1.80;100688.00;;;;5090720;28;20204;-65
2022/12/15 09:47:12;;;;;;;2.30;2.20;;;-1.20;99.90;-1.50;100676.00;;;;5072903;28;20208;-65
2022/12/15 09:49:57;;;;;;;4.13;3.73;;;-0.90;99.90;-1.20;100615.00;;;;5067588;28;20192;-65
2022/12/15 09:52:30;;;;;;;0.40;0.40;;;-0.80;99.90;-0.90;100715.00;;;;5072800;28;20229;-65
2022/12/15 09:54:57;;;;;;;1.97;1.63;;;-0.50;99.90;-0.90;100703.00;;;;5088543;28;20209;-65
2022/12/15 09:58:02;;;;;;;0.73;0.73;;;-0.40;99.90;-0.80;100700.00;;;;5082135;28;20207;-65
2022/12/15 10:00:57;;;;;;;0.60;0.60;;;-0.20;99.90;-1.30;100701.00;;;;4990580;28;20201;-65
2022/12/15 10:03:56;;;;;;;0.30;0.30;;;-0.50;99.90;-1.10;100716.00;;;;5088433;28;20235;-65
2022/12/15 10:06:52;;;;;;;3.70;3.50;;;-0.50;99.90;-0.90;100711.00;;;;5074369;28;20212;-66
2022/12/15 10:09:29;;;;;;;1.23;1.13;;;-0.40;99.90;-0.90;100718.00;;;;5084274;28;20255;-66
2022/12/15 10:12:20;;;;;;;0.30;0.30;;;-0.40;99.90;-1.10;100717.00;;;;5059107;28;20212;-66
2022/12/15 10:15:05;;;;;;;0.27;0.27;;;-0.50;99.90;-0.80;100715.00;;;;5067162;28;20209;-66
2022/12/15 10:17:50;;;;;;;0.57;0.57;;;-0.50;99.90;-0.90;100614.00;;;;5082232;28;20213;-66
2022/12/15 10:20:25;;;;;;;0.30;0.30;;;-0.40;99.90;-1.10;100720.00;;;;5057947;28;20204;-66
2022/12/15 10:33:35;;;;;;;1.40;1.30;;;-0.60;99.90;-2.00;100714.00;;;;5110257;27;20573;-65
2022/12/15 10:36:13;;;;;;;2.20;2.10;;;-0.80;99.90;-1.90;100602.00;;;;5072872;28;20196;-65
2022/12/15 10:38:46;;;;;;;3.93;2.33;;;-0.90;99.90;-1.70;100715.00;;;;5059335;28;20271;-63
2022/12/15 10:41:27;;;;;;;5.30;3.53;;;-0.80;99.90;-1.00;100700.00;;;;5070736;28;20195;-64
2022/12/15 10:43:53;;;;;;;0.60;0.60;;;-0.60;99.90;-0.90;100711.00;;;;5071915;28;20207;-64
2022/12/15 10:46:52;;;;;;;0.80;0.80;;;-0.30;99.90;0.50;100722.00;;;;5069942;28;20185;-65
2022/12/15 10:49:26;;;;;;;0.23;0.23;;;0.40;99.90;-0.30;100736.00;;;;5064518;28;20636;-64
2022/12/15 10:52:44;;;;;;;5.20;2.83;;;0.50;99.90;-1.10;100734.00;;;;5086963;28;20250;-64
2022/12/15 10:56:01;;;;;;;1.63;1.53;;;0.10;99.90;-0.60;100705.00;;;;5042686;28;20200;-64
2022/12/15 10:58:54;;;;;;;2.33;0.97;;;0.00;99.90;-0.50;100706.00;;;;5070270;28;20232;-64
2022/12/15 11:01:34;;;;;;;1.03;0.93;;;0.30;99.90;-0.30;100716.00;;;;5071136;28;20204;-64
2022/12/15 11:04:32;;;;;;;3.70;2.67;;;0.40;99.90;-0.50;100726.00;;;;5071184;28;20260;-64
2022/12/15 11:07:18;;;;;;;13.63;8.27;;;0.40;99.90;-0.40;100703.00;;;;5070225;28;20290;-64
2022/12/15 11:10:00;;;;;;;0.33;0.33;;;0.50;99.90;1.30;100721.00;;;;5087285;28;20283;-65
2022/12/15 11:13:14;;;;;;;3.90;3.63;;;1.10;99.90;0.50;100745.00;;;;5056176;28;20738;-65
2022/12/15 11:16:18;;;;;;;5.80;5.23;;;1.50;99.90;0.10;100749.00;;;;5063163;28;20459;-64
2022/12/15 11:19:08;;;;;;;10.00;6.37;;;1.30;99.90;0.70;100644.00;;;;5086498;28;20200;-64
2022/12/15 11:22:23;;;;;;;5.27;4.87;;;1.10;99.90;-0.40;100721.00;;;;5051337;28;20204;-65
2022/12/15 11:29:00;;;;;;;10.57;5.43;;;0.90;99.90;-0.20;100719.00;;;;5071553;28;20216;-66
2022/12/15 11:31:51;;;;;;;2.10;2.00;;;0.90;99.90;-0.20;100722.00;;;;4987289;28;20224;-66
2022/12/15 11:35:02;;;;;;;6.10;4.50;;;0.70;99.90;0.30;100713.00;;;;4983924;28;20331;-66
2022/12/15 11:37:57;;;;;;;6.27;5.70;;;0.80;99.90;0.90;100727.00;;;;5068860;28;20191;-67
2022/12/15 11:40:49;;;;;;;7.13;5.27;;;1.20;99.90;0.90;100703.00;;;;5067670;28;20196;-66
2022/12/15 11:43:43;;;;;;;0.50;0.50;;;1.50;99.90;1.30;100715.00;;;;4998209;28;20199;-66
2022/12/15 11:46:31;;;;;;;1.67;1.57;;;1.60;99.90;2.20;100676.00;;;;4988610;28;20307;-70
2022/12/15 11:49:15;;;;;;;1.07;1.00;;;2.20;99.90;2.70;100722.00;;;;5028484;28;20285;-67
2022/12/15 11:52:22;;;;;;;0.50;0.50;;;2.70;99.90;3.30;100726.00;;;;5075339;28;20205;-67
2022/12/15 11:55:48;;;;;;;1.90;1.80;;;3.10;99.90;4.20;100744.00;;;;5054633;28;20272;-67
2022/12/15 11:58:20;;;;;;;6.13;5.73;;;3.90;99.90;3.00;100738.00;;;;5045505;28;20204;-67
2022/12/15 12:01:13;;;;;;;12.50;8.70;;;3.40;99.90;3.20;100732.00;;;;5067491;28;20192;-66
2022/12/15 12:04:19;;;;;;;3.07;2.73;;;3.50;99.90;2.90;100728.00;;;;5057398;28;20531;-67
2022/12/15 12:06:57;;;;;;;7.00;6.17;;;3.40;99.90;2.20;100723.00;;;;5056427;28;20185;-66
2022/12/15 12:10:10;;;;;;;2.50;2.37;;;2.90;99.90;2.70;100719.00;;;;5067961;28;20184;-66
2022/12/15 12:12:52;;;;;;;0.43;0.43;;;2.80;99.90;1.90;100701.00;;;;5056639;28;20208;-66
2022/12/15 12:16:08;;;;;;;7.10;3.47;;;2.70;99.90;2.40;100697.00;;;;5055552;28;20225;-67
2022/12/15 12:19:09;;;;;;;2.40;2.30;;;2.70;99.90;2.40;100672.00;;;;5050986;28;20332;-66
2022/12/15 12:21:48;;;;;;;1.60;1.00;;;2.80;99.90;2.40;100668.00;;;;5074955;28;20266;-66
2022/12/15 12:24:43;;;;;;;0.50;0.50;;;2.80;99.90;2.70;100680.00;;;;5040962;28;20280;-67
2022/12/15 12:27:27;;;;;;;7.80;3.47;;;3.00;99.90;2.30;100690.00;;;;5074442;28;20556;-67
2022/12/15 12:30:11;;;;;;;3.90;2.37;;;2.90;99.90;2.30;100678.00;;;;5074408;28;20185;-67
2022/12/15 12:33:08;;;;;;;2.73;2.53;;;2.90;99.90;2.50;100668.00;;;;5055244;28;20263;-66
2022/12/15 12:35:49;;;;;;;1.20;1.13;;;2.90;99.90;3.30;100668.00;;;;5057045;28;20534;-67
2022/12/15 12:38:52;;;;;;;0.30;0.30;;;3.30;99.90;3.90;100672.00;;;;5055966;28;20232;-67
2022/12/15 12:41:42;;;;;;;2.83;2.40;;;3.80;99.90;2.50;100674.00;;;;5073296;28;20266;-66
2022/12/15 12:45:03;;;;;;;0.20;0.20;;;3.30;99.90;3.20;100655.00;;;;5054048;28;20232;-66
2022/12/15 12:47:41;;;;;;;0.20;0.20;;;3.30;99.90;2.80;100601.00;;;;4971829;28;20197;-66
2022/12/15 12:50:22;;;;;;;4.23;2.37;;;3.40;99.90;2.20;100652.00;;;;4957601;28;20656;-68
2022/12/15 12:53:32;;;;;;;0.20;0.20;;;3.00;99.90;2.80;100643.00;;;;5051747;28;20573;-66
2022/12/15 12:56:30;;;;;;;2.10;2.00;;;3.10;99.90;3.90;100648.00;;;;5051464;28;20204;-66
2022/12/15 12:59:29;;;;;;;10.77;4.37;;;3.70;99.90;4.80;100651.00;;;;5039340;28;20220;-66
2022/12/15 13:03:10;;;;;;;0.20;0.20;;;4.30;99.90;3.70;100652.00;;;;5050956;28;20236;-66
2022/12/15 13:05:58;;;;;;;3.53;3.40;;;4.00;99.90;4.70;100660.00;;;;5061919;28;20189;-67
2022/12/15 13:08:55;;;;;;;0.80;0.80;;;4.40;99.90;5.10;100657.00;;;;5041418;28;20243;-66
2022/12/15 13:11:51;;;;;;;0.30;0.30;;;4.90;99.90;5.30;100664.00;;;;5049691;28;20201;-66
2022/12/15 13:14:40;;;;;;;0.20;0.20;;;5.10;99.90;5.50;100655.00;;;;5073675;28;20674;-66
2022/12/15 13:17:39;;;;;;;0.20;0.20;;;5.20;99.90;4.70;100660.00;;;;5068065;28;20536;-66
2022/12/15 13:20:31;;;;;;;2.07;1.97;;;4.90;99.90;4.70;100655.00;;;;5026786;28;20284;-66
2022/12/15 13:23:23;;;;;;;0.20;0.20;;;4.80;99.90;5.50;100659.00;;;;5053121;28;20536;-66
2022/12/15 13:26:15;;;;;;;0.20;0.20;;;5.10;99.90;5.30;100647.00;;;;5063151;28;20221;-66
2022/12/15 13:29:01;;;;;;;3.53;2.70;;;5.30;99.90;3.90;100602.00;;;;5055231;28;20642;-66
2022/12/15 13:31:48;;;;;;;0.70;0.70;;;4.70;99.90;4.00;100630.00;;;;5054027;28;20221;-66
2022/12/15 13:34:47;;;;;;;0.20;0.20;;;4.50;99.90;4.60;100635.00;;;;5051838;28;20237;-66
2022/12/15 13:37:46;;;;;;;0.20;0.20;;;4.40;99.90;5.20;100633.00;;;;5008194;28;20259;-67
2022/12/15 13:40:52;;;;;;;0.37;0.30;;;4.70;99.90;4.90;100641.00;;;;4991804;28;20197;-66
2022/12/15 13:43:41;;;;;;;0.20;0.20;;;4.80;99.90;4.50;100643.00;;;;5062449;28;20581;-66
2022/12/15 13:46:30;;;;;;;3.40;2.67;;;4.60;99.90;4.90;100629.00;;;;5055861;28;20658;-66
2022/12/15 13:49:34;;;;;;;0.20;0.20;;;4.70;99.90;4.80;100637.00;;;;5041628;28;20660;-66
2022/12/15 13:52:29;;;;;;;0.40;0.40;;;4.70;99.90;4.60;100639.00;;;;5052853;28;20231;-66
2022/12/15 13:55:21;;;;;;;0.20;0.20;;;4.70;99.90;4.80;100626.00;;;;5073281;28;20175;-66
2022/12/15 13:58:40;;;;;;;0.57;0.57;;;4.70;99.90;4.50;100631.00;;;;5055430;28;20221;-66
2022/12/15 14:01:30;;;;;;;2.17;1.80;;;4.70;99.90;4.40;100620.00;;;;4957404;28;20205;-66
2022/12/15 14:04:20;;;;;;;0.20;0.20;;;4.40;99.90;4.60;100601.00;;;;5055005;28;20661;-66
2022/12/15 14:07:02;;;;;;;0.20;0.20;;;4.40;99.90;4.70;100598.00;;;;5045285;28;20275;-66
2022/12/15 14:10:04;;;;;;;0.20;0.20;;;4.40;99.90;4.60;100618.00;;;;5072314;28;20193;-66
2022/12/15 14:12:57;;;;;;;0.20;0.20;;;4.40;99.90;4.30;100608.00;;;;5055565;28;20234;-66
2022/12/15 14:15:44;;;;;;;0.20;0.20;;;4.30;99.90;4.30;100615.00;;;;5055355;28;20189;-66
2022/12/15 14:18:38;;;;;;;0.83;0.83;;;4.20;99.90;4.40;100578.00;;;;5055003;28;20687;-66
2022/12/15 14:21:25;;;;;;;0.30;0.30;;;4.10;99.90;4.30;100620.00;;;;5063326;28;20202;-66
2022/12/15 14:24:00;;;;;;;0.20;0.20;;;4.30;99.90;4.20;100594.00;;;;5072795;28;20181;-66
2022/12/15 14:26:39;;;;;;;0.40;0.40;;;4.10;99.90;3.70;100601.00;;;;5064233;28;20193;-67
2022/12/15 14:29:05;;;;;;;0.20;0.20;;;4.00;99.90;4.10;100589.00;;;;5052336;28;20181;-66
2022/12/15 14:31:32;;;;;;;0.20;0.20;;;3.90;99.90;4.20;100597.00;;;;5054636;28;20221;-67
2022/12/15 14:34:26;;;;;;;0.30;0.30;;;4.00;99.90;4.10;100495.00;;;;5073200;28;20182;-66
2022/12/15 14:37:18;;;;;;;0.30;0.30;;;4.00;99.90;3.80;100558.00;;;;5068319;28;20640;-66
2022/12/15 14:40:27;;;;;;;0.30;0.30;;;3.90;99.90;4.10;100564.00;;;;5050870;28;20201;-66
2022/12/15 14:42:59;;;;;;;0.30;0.30;;;3.90;99.90;4.20;100583.00;;;;5052152;28;20291;-67
2022/12/15 14:45:29;;;;;;;0.30;0.30;;;4.00;99.90;4.10;100575.00;;;;5060979;28;20186;-66
2022/12/15 14:48:05;;;;;;;0.30;0.30;;;4.00;99.90;4.10;100592.00;;;;5051014;28;20269;-66
2022/12/15 14:50:32;;;;;;;0.30;0.30;;;3.90;99.90;4.00;100597.00;;;;5061826;28;20185;-66
2022/12/15 14:53:10;;;;;;;0.30;0.30;;;3.80;99.90;4.00;100599.00;;;;5055211;28;20296;-66
2022/12/15 14:55:46;;;;;;;0.30;0.30;;;3.80;99.90;4.10;100583.00;;;;5054745;28;20200;-66
2022/12/15 14:58:38;;;;;;;0.30;0.30;;;3.80;99.90;4.10;100493.00;;;;5072338;28;20185;-67
2022/12/15 15:01:32;;;;;;;0.30;0.30;;;3.90;99.90;4.30;100575.00;;;;5043468;28;20213;-66
2022/12/15 15:04:33;;;;;;;0.40;0.40;;;4.00;99.90;4.40;100573.00;;;;5063414;28;20527;-66
2022/12/15 15:07:15;;;;;;;1.23;1.23;;;4.10;99.90;4.60;100598.00;;;;5056809;28;20180;-66
2022/12/15 15:09:44;;;;;;;0.30;0.30;;;4.30;99.90;4.40;100592.00;;;;5054545;28;20190;-66
2022/12/15 15:12:20;;;;;;;2.50;2.40;;;4.20;99.90;4.10;100592.00;;;;5048021;28;20257;-66
2022/12/15 15:14:54;;;;;;;0.30;0.30;;;4.20;99.90;4.20;100587.00;;;;5052743;28;20186;-66
2022/12/15 15:17:51;;;;;;;1.07;1.07;;;4.10;99.90;4.10;100576.00;;;;5070117;28;20181;-66
2022/12/15 15:20:35;;;;;;;0.60;0.60;;;4.00;99.90;4.30;100525.00;;;;5044627;28;20278;-67
2022/12/15 15:23:07;;;;;;;0.30;0.30;;;4.00;99.90;4.20;100583.00;;;;5056495;28;20185;-66
2022/12/15 15:26:04;;;;;;;0.30;0.30;;;4.00;99.90;3.90;100583.00;;;;5074507;28;20188;-66
2022/12/15 15:28:45;;;;;;;0.30;0.30;;;3.90;99.90;3.60;100587.00;;;;5063240;28;20188;-66
2022/12/15 15:31:33;;;;;;;0.30;0.30;;;3.70;99.90;3.50;100581.00;;;;5050241;28;20221;-66
2022/12/15 15:33:59;;;;;;;0.30;0.30;;;3.50;99.90;3.40;100566.00;;;;5057699;28;20177;-66
2022/12/15 15:36:47;;;;;;;0.43;0.43;;;3.40;99.90;3.40;100565.00;;;;5043637;28;20515;-65
2022/12/15 15:39:31;;;;;;;0.30;0.30;;;3.40;99.90;3.30;100575.00;;;;5055925;28;20636;-65
2022/12/15 15:42:11;;;;;;;0.40;0.40;;;3.30;99.90;3.00;100481.00;;;;5075220;28;20185;-65
2022/12/15 15:45:17;;;;;;;0.40;0.40;;;3.10;99.90;2.80;100578.00;;;;5057991;28;20181;-65
2022/12/15 15:47:53;;;;;;;0.40;0.40;;;3.00;99.90;2.70;100581.00;;;;5045487;28;20200;-65
2022/12/15 15:50:34;;;;;;;0.40;0.40;;;2.80;99.90;2.90;100549.00;;;;5054604;28;20216;-65
2022/12/15 15:53:23;;;;;;;0.40;0.40;;;2.80;99.90;2.70;100548.00;;;;5041215;28;20240;-65
2022/12/15 15:55:54;;;;;;;0.40;0.40;;;2.70;99.90;2.40;100571.00;;;;4974287;28;20283;-65
2022/12/15 15:58:44;;;;;;;1.33;1.33;;;2.60;99.90;2.10;100577.00;;;;4974679;28;20196;-65
2022/12/15 16:01:30;;;;;;;0.77;0.77;;;2.40;99.90;1.60;100565.00;;;;5034937;28;20274;-65
2022/12/15 16:04:12;;;;;;;1.70;1.60;;;2.20;99.90;1.50;100569.00;;;;5044867;28;20206;-66
2022/12/15 16:06:58;;;;;;;0.30;0.30;;;2.00;99.90;1.60;100475.00;;;;5056452;28;20185;-66
2022/12/15 16:09:49;;;;;;;0.80;0.80;;;1.80;99.90;1.70;100576.00;;;;5074108;28;20193;-66
2022/12/15 16:12:57;;;;;;;2.93;2.77;;;1.80;99.90;1.40;100555.00;;;;5061458;28;20233;-65
2022/12/15 16:15:26;;;;;;;3.50;3.20;;;1.80;99.90;0.90;100588.00;;;;5057502;28;20263;-65
2022/12/15 16:17:53;;;;;;;1.17;1.17;;;1.60;99.90;0.90;100581.00;;;;5041600;28;20189;-65
2022/12/15 16:20:22;;;;;;;0.50;0.50;;;1.40;99.90;1.10;100574.00;;;;5071352;28;20189;-65
2022/12/15 16:23:14;;;;;;;0.43;0.43;;;1.40;99.90;0.80;100580.00;;;;5055365;28;20197;-66
2022/12/15 16:26:00;;;;;;;0.40;0.40;;;1.40;99.90;1.00;100587.00;;;;5057119;28;20259;-66
2022/12/15 16:28:49;;;;;;;1.30;1.23;;;1.40;99.90;0.90;100469.00;;;;5055816;28;20193;-65
2022/12/15 16:31:38;;;;;;;0.50;0.50;;;1.30;99.90;1.30;100482.00;;;;5074320;28;20264;-65
2022/12/15 16:34:07;;;;;;;0.50;0.50;;;1.40;99.90;1.20;100578.00;;;;5040558;28;20185;-65
2022/12/15 16:36:33;;;;;;;0.50;0.50;;;1.30;99.90;1.20;100596.00;;;;5057027;28;20197;-65
2022/12/15 16:39:00;;;;;;;0.40;0.40;;;1.50;99.90;1.40;100590.00;;;;5057476;28;20189;-65
2022/12/15 16:41:34;;;;;;;0.57;0.57;;;1.50;99.90;1.70;100604.00;;;;5056375;28;20181;-65
2022/12/15 16:44:00;;;;;;;0.50;0.50;;;1.60;99.90;1.10;100596.00;;;;5056911;28;20207;-65
2022/12/15 16:46:28;;;;;;;0.40;0.40;;;1.40;99.90;0.80;100602.00;;;;5053418;28;20726;-66
2022/12/15 16:48:57;;;;;;;0.90;0.90;;;1.20;99.90;0.60;100581.00;;;;5073315;28;20182;-66
2022/12/15 16:51:37;;;;;;;1.50;1.50;;;1.00;99.90;0.10;100591.00;;;;5040185;28;20217;-65
2022/12/15 16:54:33;;;;;;;0.40;0.40;;;0.80;99.90;0.30;100574.00;;;;5056739;28;20185;-65
2022/12/15 16:57:28;;;;;;;0.50;0.50;;;0.60;99.90;0.00;100460.00;;;;5038434;28;20208;-65
2022/12/15 17:00:35;;;;;;;1.90;1.80;;;0.60;99.90;0.40;100582.00;;;;5059522;28;20232;-66
2022/12/15 17:03:32;;;;;;;1.47;1.37;;;0.60;99.90;-0.30;100596.00;;;;5067576;28;20197;-65
2022/12/15 17:06:26;;;;;;;1.30;1.10;;;0.50;99.90;0.20;100599.00;;;;5036384;28;20646;-66
2022/12/15 17:09:04;;;;;;;0.77;0.77;;;0.50;99.90;0.00;100594.00;;;;5049839;28;20201;-66
2022/12/15 17:11:34;;;;;;;0.40;0.40;;;0.40;99.90;0.10;100593.00;;;;5055910;28;20189;-66
2022/12/15 17:14:13;;;;;;;0.80;0.80;;;0.50;99.90;-0.30;100577.00;;;;5072063;28;20194;-65
2022/12/15 17:17:05;;;;;;;2.50;2.40;;;0.30;99.90;-0.10;100587.00;;;;5039361;28;20184;-65
2022/12/15 17:20:09;;;;;;;3.33;3.13;;;0.20;99.90;-0.20;100614.00;;;;5057070;28;20197;-65
2022/12/15 17:22:59;;;;;;;0.70;0.70;;;0.20;99.90;0.10;100610.00;;;;5052859;28;21091;-66
2022/12/15 17:25:50;;;;;;;0.50;0.50;;;0.50;99.90;0.00;100612.00;;;;5060358;28;20778;-65
2022/12/15 17:28:35;;;;;;;2.20;2.10;;;0.40;99.90;-0.60;100610.00;;;;5052228;28;20328;-65
2022/12/15 17:31:19;;;;;;;0.67;0.67;;;0.20;99.90;-0.90;100477.00;;;;5056066;28;20272;-66
2022/12/15 17:33:54;;;;;;;2.60;2.10;;;0.00;99.90;-0.70;100610.00;;;;5055646;28;20205;-65
2022/12/15 17:36:29;;;;;;;1.13;1.13;;;-0.10;99.90;-0.80;100609.00;;;;5036305;28;20192;-66
2022/12/15 17:38:58;;;;;;;0.97;0.97;;;0.00;99.90;-0.70;100610.00;;;;5055977;28;20253;-66
2022/12/15 17:41:30;;;;;;;0.60;0.60;;;-0.10;99.90;-0.40;100589.00;;;;5055027;28;20223;-66
2022/12/15 17:43:59;;;;;;;0.50;0.50;;;0.00;99.90;-0.60;100609.00;;;;5051944;28;20190;-65
2022/12/15 17:46:59;;;;;;;1.90;1.80;;;0.00;99.90;-0.60;100613.00;;;;5054016;28;20185;-65
2022/12/15 17:49:27;;;;;;;0.40;0.40;;;0.00;99.90;-0.70;100617.00;;;;5039348;28;20235;-66
2022/12/15 17:52:30;;;;;;;0.87;0.87;;;0.00;99.90;-0.50;100509.00;;;;5073371;28;20636;-65
2022/12/15 17:54:56;;;;;;;1.43;1.43;;;0.10;99.90;-0.60;100631.00;;;;5055563;28;20227;-66
2022/12/15 17:57:25;;;;;;;3.83;3.70;;;0.10;99.90;-0.70;100604.00;;;;5053245;28;20186;-65
2022/12/15 17:59:51;;;;;;;1.03;1.03;;;0.00;99.90;-0.30;100596.00;;;;5071243;28;20181;-66
2022/12/15 18:02:17;;;;;;;1.63;1.53;;;0.10;99.90;-0.50;100640.00;;;;5055387;28;20546;-65
2022/12/15 18:04:43;;;;;;;1.43;1.43;;;0.10;99.90;-0.30;100632.00;;;;5055124;28;20177;-66
2022/12/15 18:07:20;;;;;;;0.50;0.50;;;0.10;99.90;-0.40;100614.00;;;;5055314;28;20193;-66
2022/12/15 18:09:53;;;;;;;1.53;1.53;;;0.10;99.90;-0.40;100636.00;;;;5040990;28;20211;-66
2022/12/15 18:12:48;;;;;;;3.70;2.80;;;0.10;99.90;-0.20;100635.00;;;;5038009;28;20202;-65
2022/12/15 18:15:30;;;;;;;10.33;9.00;;;0.20;99.90;-0.40;100640.00;;;;5068672;28;20253;-66
2022/12/15 18:17:59;;;;;;;0.60;0.60;;;0.20;99.90;-0.50;100629.00;;;;5065429;28;20664;-65
2022/12/15 18:20:25;;;;;;;0.63;0.63;;;0.20;99.90;-0.40;100549.00;;;;5065303;28;20181;-66
2022/12/15 18:22:52;;;;;;;5.00;4.70;;;0.20;99.90;-0.30;100642.00;;;;5050126;28;20257;-65
2022/12/15 18:25:24;;;;;;;0.70;0.70;;;0.20;99.90;-0.30;100645.00;;;;5070971;28;20686;-66
2022/12/15 18:27:57;;;;;;;2.97;2.77;;;0.20;99.90;-0.30;100653.00;;;;5055189;28;20185;-66
2022/12/15 18:30:29;;;;;;;0.60;0.60;;;0.20;99.90;-0.10;100648.00;;;;5071742;28;20189;-65
2022/12/15 18:32:57;;;;;;;0.83;0.83;;;0.20;99.90;0.00;100651.00;;;;5041101;28;20197;-66
2022/12/15 18:35:37;;;;;;;2.63;2.43;;;0.30;99.90;-0.10;100666.00;;;;5054541;28;20204;-66
2022/12/15 18:38:25;;;;;;;1.10;1.10;;;0.30;99.90;0.00;100676.00;;;;5054496;28;20185;-66
2022/12/15 18:40:55;;;;;;;0.60;0.60;;;0.30;99.90;0.10;100658.00;;;;5054606;28;20177;-66
2022/12/15 18:43:42;;;;;;;0.90;0.90;;;0.40;99.90;-0.60;100665.00;;;;5050542;28;20696;-65
2022/12/15 18:46:19;;;;;;;6.67;3.90;;;0.40;99.90;-0.30;100644.00;;;;5049450;28;20657;-65
2022/12/15 18:48:50;;;;;;;1.07;1.07;;;0.30;99.90;-0.10;100675.00;;;;5024941;28;20169;-66
2022/12/15 18:51:21;;;;;;;3.03;2.83;;;0.30;99.90;-0.30;100692.00;;;;5053633;28;20189;-66
2022/12/15 18:54:05;;;;;;;2.37;2.20;;;0.30;99.90;-0.40;100621.00;;;;5055644;28;20679;-65
2022/12/15 18:56:49;;;;;;;1.23;1.23;;;0.30;99.90;-0.50;100669.00;;;;5055693;28;20188;-65
2022/12/15 18:59:24;;;;;;;3.23;3.13;;;0.20;99.90;-0.30;100683.00;;;;5053316;28;20216;-66
2022/12/15 19:01:52;;;;;;;2.70;2.50;;;0.30;99.90;-0.40;100683.00;;;;5057224;28;20184;-65
2022/12/15 19:04:20;;;;;;;2.03;1.07;;;0.20;99.90;-0.50;100677.00;;;;5056787;28;20243;-66
2022/12/15 19:06:52;;;;;;;3.43;3.20;;;0.30;99.90;-0.30;100688.00;;;;5059448;28;20193;-66
2022/12/15 19:09:22;;;;;;;12.00;5.97;;;0.30;99.90;-0.80;100691.00;;;;5058167;28;20606;-65
2022/12/15 19:14:41;;;;;;;6.83;6.40;;;0.20;99.90;-0.40;100676.00;;;;5060427;28;20220;-65
2022/12/15 19:23:15;;;;;;;3.60;3.40;;;0.30;99.90;-0.70;100678.00;;;;5059830;28;20196;-65
2022/12/15 19:25:43;;;;;;;4.77;4.00;;;0.30;99.90;-0.30;100683.00;;;;5056514;28;20609;-65
2022/12/15 19:28:22;;;;;;;4.53;4.33;;;0.40;99.90;-0.30;100679.00;;;;5074534;28;20189;-65
2022/12/15 19:30:52;;;;;;;3.33;3.03;;;0.40;99.90;-0.30;100660.00;;;;5058016;28;20181;-65
2022/12/15 19:33:26;;;;;;;3.17;2.97;;;0.30;99.90;-0.40;100678.00;;;;5057721;28;20221;-65
2022/12/15 19:36:01;;;;;;;2.67;1.83;;;0.40;99.90;-0.30;100672.00;;;;5058306;28;20258;-64
2022/12/15 19:38:32;;;;;;;3.17;3.07;;;0.40;99.90;-0.40;100676.00;;;;5075272;28;20188;-65
2022/12/15 19:41:18;;;;;;;3.77;3.47;;;0.40;99.90;-0.40;100565.00;;;;5054600;28;20187;-64
2022/12/15 19:43:49;;;;;;;0.47;0.47;;;0.40;99.90;-0.10;100663.00;;;;5074400;28;20551;-65
2022/12/15 19:46:20;;;;;;;0.70;0.70;;;0.40;99.90;0.10;100670.00;;;;5057898;28;20235;-65
2022/12/15 19:48:52;;;;;;;0.50;0.50;;;0.50;99.90;0.10;100684.00;;;;5058203;28;20273;-66
2022/12/15 19:51:23;;;;;;;0.50;0.50;;;0.60;99.90;0.60;100683.00;;;;5056864;28;20208;-66
2022/12/15 19:53:52;;;;;;;0.50;0.50;;;0.70;99.90;0.40;100660.00;;;;5057876;28;20195;-66
2022/12/15 19:56:22;;;;;;;0.70;0.70;;;0.70;99.90;0.50;100677.00;;;;5057237;28;20235;-66
2022/12/15 19:58:54;;;;;;;0.60;0.60;;;0.70;99.90;0.60;100680.00;;;;5052684;28;20675;-66
2022/12/15 20:01:21;;;;;;;0.50;0.50;;;0.70;99.90;0.80;100675.00;;;;5056715;28;20272;-66
2022/12/15 20:04:04;;;;;;;0.60;0.60;;;0.80;99.90;0.50;100671.00;;;;5055781;28;20186;-66
2022/12/15 20:06:37;;;;;;;0.50;0.50;;;0.80;99.90;0.60;100679.00;;;;5057922;28;20189;-66
2022/12/15 20:09:23;;;;;;;1.33;1.20;;;0.70;99.90;0.70;100678.00;;;;5057198;28;20197;-65
2022/12/15 20:11:54;;;;;;;1.53;1.53;;;0.70;99.90;0.50;100680.00;;;;5045384;28;20224;-66
2022/12/15 20:14:49;;;;;;;0.50;0.50;;;0.80;99.90;0.30;100676.00;;;;5057448;28;20188;-66
2022/12/15 20:17:16;;;;;;;4.80;4.50;;;0.60;99.90;0.70;100665.00;;;;5074489;28;20266;-66